Airfield :
LOGIN :

Register | Disclaimer

   EN    FR    IT 

 










Legend :    VFR   Marginal VFR   IFR   Intensive IFR   Very Intensive IFR
Visi :
Ceiling :
>= 8 km
>= 3000ft
5 to 8 km
1000 to 3000 ft
1500m to 5 km
500 to 1000 ft
800 to 1500m
200 to 500 ft
< 800m
< 200 ft
Symbols :   Thunderstorms  Fog  Heavy snow  Heavy precipitations  Wind > 20 kt
SIGMETs :     Misc.  Thunderstorms  Icing  Turbulence  Mountain Waves  Volcanic Ashes







- Airport Elevation : 39 ft
- IATA code : CTA


LICC - Catania Fontanarossa

CURRENT METAR :
  • 211450Z 11009KT 9999 FEW025 SCT035 25/19 Q1021

EXPIRED METARs :
  • 211420Z 11010KT 080V140 9999 FEW025 SCT035 26/19 Q1021
  • 211350Z 11011KT 9999 SCT035 26/19 Q1021
  • 211320Z 12011KT 080V140 9999 SCT035 26/19 Q1021
  • 211250Z 13012KT 090V150 9999 SCT035 27/19 Q1021
  • 211220Z 13012KT 9999 SCT030 26/19 Q1022
  • 211150Z 11011KT 090V150 9999 SCT030 27/19 Q1022

TAF TAF LICC
Valid from the 21 at 12:00 until the 22 at 12:00 UTC


211100Z 2112/2212 08012KT 9999 SCT030
BECMG 2118/2120 25008KT
No reported NOTAMs for that airfield.



MET'MAP, your aeronautical weather chart ! - Copyright ORBIFLY December 2007 - Disclaimer

ORBIFLY MET'MAP TEAM :

Programming & Development : Alexandra Zaïnal
Concept & Development : Baudouin d'Aumeries
Co-Development & Prog : Marc-Olivier Méhu
Technical & hardware support : Manuel Goepfert

Contact : metmap@orbifly.com




SOURCES & CREDITS :

   NOAA